Time;durP1;ratioP1;P1;durP2;ratioP2;P2;SDS_P1;SDS_P2;PMS_P1;PMS_P2;Temp;Humidity;BMP_temperature;BMP_pressure;BME280_temperature;BME280_humidity;BME280_pressure;Samples;Min_cycle;Max_cycle;Signal;HPM_P1;HPM_P2
2022/01/24 00:00:30;;;;;;;;;;;3.70;94.80;;;;;;5074292;28;19936;-79
2022/01/24 00:02:57;;;;;;;;;;;3.70;94.90;;;;;;5064241;28;19928;-80
2022/01/24 00:05:23;;;;;;;;;;;3.60;94.80;;;;;;5064523;28;19928;-78
2022/01/24 00:07:50;;;;;;;;;;;3.60;94.90;;;;;;5065496;28;19939;-78
2022/01/24 00:10:20;;;;;;;;;;;3.60;94.90;;;;;;5079960;28;19931;-79
2022/01/24 00:13:00;;;;;;;;;;;3.60;94.90;;;;;;5066075;28;19966;-79
2022/01/24 00:15:49;;;;;;;;;;;3.50;94.90;;;;;;5063457;28;19929;-78
2022/01/24 00:18:25;;;;;;;;;;;3.50;94.90;;;;;;5059823;28;19925;-79
2022/01/24 00:29:05;;;;;;;;;;;3.40;95.00;;;;;;5066359;28;20383;-79
2022/01/24 00:31:31;;;;;;;;;;;3.40;95.00;;;;;;5074253;28;20274;-79
2022/01/24 00:33:58;;;;;;;;;;;3.40;95.00;;;;;;5068517;28;20514;-78
2022/01/24 00:36:24;;;;;;;;;;;3.40;95.00;;;;;;5070251;28;19941;-79
2022/01/24 00:38:51;;;;;;;;;;;3.40;95.10;;;;;;5071477;28;20017;-77
2022/01/24 00:41:20;;;;;;;;;;;3.40;95.10;;;;;;5066193;28;19928;-79
2022/01/24 00:44:02;;;;;;;;;;;3.30;95.10;;;;;;5064569;28;20376;-79
2022/01/24 00:46:35;;;;;;;;;;;3.30;95.10;;;;;;5060743;28;20534;-79
2022/01/24 00:49:20;;;;;;;;;;;3.30;95.10;;;;;;5066990;28;20336;-79
2022/01/24 00:54:43;;;;;;;;;;;3.20;95.10;;;;;;5070243;28;19931;-79
2022/01/24 00:57:10;;;;;;;;;;;3.20;95.10;;;;;;5061069;28;19928;-78
2022/01/24 00:59:37;;;;;;;;;;;3.20;95.10;;;;;;5074826;28;19928;-79
2022/01/24 01:02:06;;;;;;;;;;;3.20;95.10;;;;;;5063883;28;20368;-79
2022/01/24 01:04:41;;;;;;;;;;;3.20;95.10;;;;;;5066793;28;20473;-79
2022/01/24 01:07:08;;;;;;;;;;;3.10;95.10;;;;;;5066091;28;20000;-78
2022/01/24 01:20:49;;;;;;;;;;;3.00;95.10;;;;;;5066637;28;19935;-79
2022/01/24 01:23:16;;;;;;;;;;;3.00;95.10;;;;;;5073068;28;19939;-79
2022/01/24 01:25:44;;;;;;;;;;;3.00;95.10;;;;;;5069770;28;19932;-78
2022/01/24 01:28:11;;;;;;;;;;;3.00;95.10;;;;;;5069294;28;19936;-77
2022/01/24 01:30:42;;;;;;;;;;;2.90;95.10;;;;;;5069719;28;19932;-79
2022/01/24 01:33:17;;;;;;;;;;;2.90;95.10;;;;;;5064198;28;19967;-79
2022/01/24 01:35:58;;;;;;;;;;;2.90;95.10;;;;;;5072472;28;19928;-79
2022/01/24 01:52:29;;;;;;;;;;;2.70;95.10;;;;;;5072562;28;19940;-79
2022/01/24 01:55:10;;;;;;;;;;;2.70;95.20;;;;;;5063466;28;20000;-79
2022/01/24 01:57:37;;;;;;;;;;;2.70;95.20;;;;;;5065012;28;19937;-78
2022/01/24 02:00:04;;;;;;;;;;;2.70;95.20;;;;;;5063763;28;19933;-80
2022/01/24 02:02:31;;;;;;;;;;;2.70;95.20;;;;;;5063486;28;19936;-79
2022/01/24 02:04:59;;;;;;;;;;;2.70;95.20;;;;;;5066746;28;19928;-78
2022/01/24 02:07:25;;;;;;;;;;;2.60;95.20;;;;;;5068114;28;20399;-79
2022/01/24 02:09:52;;;;;;;;;;;2.60;95.20;;;;;;5068759;28;20373;-78
2022/01/24 02:12:23;;;;;;;;;;;2.60;95.20;;;;;;5067425;28;19939;-79
2022/01/24 02:14:55;;;;;;;;;;;2.60;95.30;;;;;;5069411;28;20097;-79
2022/01/24 02:17:29;;;;;;;;;;;2.60;95.30;;;;;;5063151;28;20126;-78
2022/01/24 02:20:11;;;;;;;;;;;2.60;95.30;;;;;;5064197;28;20447;-79
2022/01/24 02:22:46;;;;;;;;;;;2.50;95.30;;;;;;5067116;28;19978;-79
2022/01/24 02:25:24;;;;;;;;;;;2.50;95.30;;;;;;5069146;28;19935;-79
2022/01/24 02:27:56;;;;;;;;;;;2.50;95.30;;;;;;5069484;28;19935;-79
2022/01/24 02:30:40;;;;;;;;;;;2.50;95.30;;;;;;5067432;28;19980;-79
2022/01/24 02:33:09;;;;;;;;;;;2.50;95.40;;;;;;5064855;28;20006;-78
2022/01/24 02:35:35;;;;;;;;;;;2.50;95.40;;;;;;5073012;28;19938;-77
2022/01/24 02:38:08;;;;;;;;;;;2.40;95.30;;;;;;5062638;28;20003;-79
2022/01/24 02:40:34;;;;;;;;;;;2.40;95.40;;;;;;5062435;28;20388;-79
2022/01/24 02:48:27;;;;;;;;;;;2.40;95.40;;;;;;5044321;28;19935;-79
2022/01/24 02:53:42;;;;;;;;;;;2.40;95.40;;;;;;5050404;28;19931;-78
2022/01/24 02:56:09;;;;;;;;;;;2.30;95.40;;;;;;5043051;28;19928;-78
2022/01/24 02:58:36;;;;;;;;;;;2.30;95.40;;;;;;5045454;28;19929;-78
2022/01/24 03:01:06;;;;;;;;;;;2.30;95.40;;;;;;5046141;28;19989;-78
2022/01/24 03:03:32;;;;;;;;;;;2.30;95.40;;;;;;5050119;28;20337;-78
2022/01/24 03:05:59;;;;;;;;;;;2.30;95.40;;;;;;5048489;28;19933;-77
2022/01/24 03:08:25;;;;;;;;;;;2.30;95.40;;;;;;5048024;28;19924;-78
2022/01/24 03:10:53;;;;;;;;;;;2.30;95.50;;;;;;5053487;28;19979;-78
2022/01/24 03:13:32;;;;;;;;;;;2.20;95.40;;;;;;5051777;28;20462;-78
2022/01/24 03:15:59;;;;;;;;;;;2.20;95.40;;;;;;5047096;28;19938;-78
2022/01/24 03:18:27;;;;;;;;;;;2.20;95.40;;;;;;5064607;28;20039;-78
2022/01/24 03:20:54;;;;;;;;;;;2.20;95.40;;;;;;5074924;28;19936;-77
2022/01/24 03:23:21;;;;;;;;;;;2.20;95.40;;;;;;5067473;28;19932;-77
2022/01/24 03:25:48;;;;;;;;;;;2.10;95.40;;;;;;5069565;28;19932;-77
2022/01/24 03:28:16;;;;;;;;;;;2.10;95.40;;;;;;5068330;28;19964;-76
2022/01/24 03:30:42;;;;;;;;;;;2.10;95.50;;;;;;5067384;28;19928;-78
2022/01/24 03:33:09;;;;;;;;;;;2.10;95.50;;;;;;5065744;28;19928;-78
2022/01/24 03:35:36;;;;;;;;;;;2.10;95.50;;;;;;5073196;28;20511;-77
2022/01/24 03:38:03;;;;;;;;;;;2.10;95.50;;;;;;5068279;28;19939;-78
2022/01/24 03:40:30;;;;;;;;;;;2.00;95.50;;;;;;5069650;28;19928;-78
2022/01/24 03:42:56;;;;;;;;;;;2.00;95.50;;;;;;5065530;28;20002;-77
2022/01/24 03:45:37;;;;;;;;;;;2.00;95.50;;;;;;5074080;28;19935;-76
2022/01/24 03:48:07;;;;;;;;;;;2.00;95.50;;;;;;5062176;28;19963;-79
2022/01/24 03:50:34;;;;;;;;;;;2.00;95.50;;;;;;5062809;28;19975;-78
2022/01/24 03:53:00;;;;;;;;;;;2.00;95.50;;;;;;5067975;28;19935;-78
2022/01/24 03:55:27;;;;;;;;;;;2.00;95.50;;;;;;5065195;28;19932;-79
2022/01/24 03:57:54;;;;;;;;;;;2.00;95.50;;;;;;5068197;28;19974;-77
2022/01/24 04:00:20;;;;;;;;;;;1.90;95.50;;;;;;5067431;28;19997;-77
2022/01/24 04:02:48;;;;;;;;;;;1.90;95.50;;;;;;5064167;28;19932;-78
2022/01/24 04:05:15;;;;;;;;;;;1.90;95.50;;;;;;5064632;28;19936;-78
2022/01/24 04:07:42;;;;;;;;;;;1.90;95.50;;;;;;5064126;28;19928;-78
2022/01/24 04:10:09;;;;;;;;;;;1.90;95.50;;;;;;5065466;28;20707;-77
2022/01/24 04:12:39;;;;;;;;;;;1.80;95.50;;;;;;5065366;28;19928;-77
2022/01/24 04:15:11;;;;;;;;;;;1.80;95.50;;;;;;5063527;28;20411;-78
2022/01/24 04:17:42;;;;;;;;;;;1.90;95.50;;;;;;5061446;28;19947;-77
2022/01/24 04:22:56;;;;;;;;;;;1.80;95.50;;;;;;5070928;28;20066;-79
2022/01/24 04:25:24;;;;;;;;;;;1.80;95.50;;;;;;5070398;28;19929;-78
2022/01/24 04:27:51;;;;;;;;;;;1.70;95.50;;;;;;5072173;28;19928;-78
2022/01/24 04:30:18;;;;;;;;;;;1.70;95.50;;;;;;5069828;28;19943;-78
2022/01/24 04:32:44;;;;;;;;;;;1.70;95.50;;;;;;5064807;28;20030;-78
2022/01/24 04:35:12;;;;;;;;;;;1.70;95.50;;;;;;5066708;28;20314;-78
2022/01/24 04:37:39;;;;;;;;;;;1.70;95.50;;;;;;5068581;28;19929;-78
2022/01/24 04:40:06;;;;;;;;;;;1.70;95.50;;;;;;5065656;28;19933;-79
2022/01/24 04:42:41;;;;;;;;;;;1.70;95.50;;;;;;5066183;28;19928;-79
2022/01/24 04:45:26;;;;;;;;;;;1.70;95.50;;;;;;5062820;28;19955;-77
2022/01/24 04:50:57;;;;;;;;;;;1.60;95.50;;;;;;5063183;28;19940;-78
2022/01/24 04:53:44;;;;;;;;;;;1.60;95.50;;;;;;5065060;28;19932;-77
2022/01/24 04:56:10;;;;;;;;;;;1.60;95.50;;;;;;5063729;28;19929;-78
2022/01/24 04:58:37;;;;;;;;;;;1.60;95.50;;;;;;5065943;28;19936;-78
2022/01/24 05:01:03;;;;;;;;;;;1.60;95.60;;;;;;5069149;28;19936;-77
2022/01/24 05:03:30;;;;;;;;;;;1.50;95.50;;;;;;5069200;28;19935;-77
2022/01/24 05:05:58;;;;;;;;;;;1.50;95.50;;;;;;5071020;28;19928;-78
2022/01/24 05:08:27;;;;;;;;;;;1.60;95.60;;;;;;5068898;28;19932;-77
2022/01/24 05:11:01;;;;;;;;;;;1.50;95.60;;;;;;5070769;28;20330;-78
2022/01/24 05:24:25;;;;;;;;;;;1.50;95.60;;;;;;5052011;28;19931;-78
2022/01/24 05:26:52;;;;;;;;;;;1.40;95.50;;;;;;5067354;28;19934;-79
2022/01/24 05:29:19;;;;;;;;;;;1.50;95.60;;;;;;5070009;28;20051;-79
2022/01/24 05:31:45;;;;;;;;;;;1.40;95.50;;;;;;5064978;28;19935;-79
2022/01/24 05:34:12;;;;;;;;;;;1.40;95.50;;;;;;5068609;28;19932;-79
2022/01/24 05:36:38;;;;;;;;;;;1.40;95.60;;;;;;5066348;28;19986;-79
2022/01/24 05:39:06;;;;;;;;;;;1.40;95.60;;;;;;5067133;28;19974;-80
2022/01/24 05:41:34;;;;;;;;;;;1.40;95.60;;;;;;5064736;28;19935;-79
2022/01/24 05:44:01;;;;;;;;;;;1.40;95.60;;;;;;5064164;28;19928;-80
2022/01/24 05:46:27;;;;;;;;;;;1.30;95.60;;;;;;5068796;28;19977;-78
2022/01/24 05:48:54;;;;;;;;;;;1.30;95.60;;;;;;5070170;28;19982;-79
2022/01/24 05:51:21;;;;;;;;;;;1.30;95.60;;;;;;5065850;28;20529;-80
2022/01/24 05:53:48;;;;;;;;;;;1.30;95.60;;;;;;5066207;28;19972;-78
2022/01/24 05:56:16;;;;;;;;;;;1.30;95.60;;;;;;5069046;28;19932;-79
2022/01/24 05:58:43;;;;;;;;;;;1.30;95.60;;;;;;5066722;28;19928;-77
2022/01/24 06:01:09;;;;;;;;;;;1.30;95.60;;;;;;5061661;28;20782;-77
2022/01/24 06:03:36;;;;;;;;;;;1.20;95.40;;;;;;5062185;28;20141;-78
2022/01/24 06:06:02;;;;;;;;;;;1.00;93.70;;;;;;5069156;28;19955;-77
2022/01/24 06:08:29;;;;;;;;;;;0.80;94.40;;;;;;5063923;28;19943;-77
2022/01/24 06:10:58;;;;;;;;;;;0.70;94.90;;;;;;5071667;28;20346;-77
2022/01/24 06:13:26;;;;;;;;;;;0.80;95.30;;;;;;5067755;28;19940;-76
2022/01/24 06:15:53;;;;;;;;;;;0.80;95.40;;;;;;5068511;28;19928;-79
2022/01/24 06:18:20;;;;;;;;;;;0.80;95.50;;;;;;5065591;28;19932;-78
2022/01/24 06:20:47;;;;;;;;;;;0.90;95.60;;;;;;5068289;28;19928;-78
2022/01/24 06:23:14;;;;;;;;;;;0.90;95.60;;;;;;5065776;28;19936;-78
2022/01/24 06:25:41;;;;;;;;;;;0.90;95.60;;;;;;5065291;28;20348;-78
2022/01/24 06:28:07;;;;;;;;;;;0.90;95.50;;;;;;5070228;28;19939;-77
2022/01/24 06:30:35;;;;;;;;;;;0.90;95.50;;;;;;5068880;28;19978;-78
2022/01/24 06:33:02;;;;;;;;;;;0.90;95.50;;;;;;5065983;28;19932;-77
2022/01/24 06:35:29;;;;;;;;;;;1.00;95.50;;;;;;5069651;28;19929;-78
2022/01/24 06:37:55;;;;;;;;;;;1.00;95.50;;;;;;5061220;28;19929;-78
2022/01/24 06:40:22;;;;;;;;;;;1.00;95.50;;;;;;5072371;28;20363;-77
2022/01/24 06:42:48;;;;;;;;;;;0.90;95.50;;;;;;5066080;28;19932;-78
2022/01/24 06:45:15;;;;;;;;;;;0.90;95.50;;;;;;5071647;28;19940;-78
2022/01/24 06:47:44;;;;;;;;;;;1.00;95.50;;;;;;5072412;28;19929;-77
2022/01/24 06:50:11;;;;;;;;;;;0.90;95.50;;;;;;5080365;28;19960;-77
2022/01/24 06:52:37;;;;;;;;;;;0.90;95.40;;;;;;5076784;28;19929;-78
2022/01/24 06:55:04;;;;;;;;;;;0.90;95.40;;;;;;5071842;28;19935;-78
2022/01/24 06:57:31;;;;;;;;;;;0.90;95.50;;;;;;5068358;28;20465;-78
2022/01/24 06:59:58;;;;;;;;;;;0.90;95.50;;;;;;5068037;28;19940;-77
2022/01/24 07:02:24;;;;;;;;;;;0.90;95.50;;;;;;5069490;28;19939;-78
2022/01/24 07:04:52;;;;;;;;;;;0.90;95.50;;;;;;5072958;28;20431;-78
2022/01/24 07:07:19;;;;;;;;;;;0.90;95.50;;;;;;5068803;28;19928;-79
2022/01/24 07:09:45;;;;;;;;;;;0.90;95.50;;;;;;5077402;28;19928;-79
2022/01/24 07:12:12;;;;;;;;;;;0.90;95.50;;;;;;5076920;28;19928;-81
2022/01/24 07:14:40;;;;;;;;;;;0.90;95.50;;;;;;5074426;28;20392;-82
2022/01/24 07:17:14;;;;;;;;;;;0.80;95.50;;;;;;5072664;28;19958;-80
2022/01/24 07:19:41;;;;;;;;;;;0.80;95.50;;;;;;5070205;28;20417;-79
2022/01/24 07:22:09;;;;;;;;;;;0.80;95.50;;;;;;5074351;28;20388;-82
2022/01/24 07:24:36;;;;;;;;;;;0.80;95.50;;;;;;5070743;28;19939;-81
2022/01/24 07:27:03;;;;;;;;;;;0.80;95.50;;;;;;5071445;28;19951;-82
2022/01/24 07:29:29;;;;;;;;;;;0.80;95.50;;;;;;5075589;28;19939;-80
2022/01/24 07:31:56;;;;;;;;;;;0.80;95.50;;;;;;5067371;28;19990;-81
2022/01/24 07:34:23;;;;;;;;;;;0.80;95.50;;;;;;5076645;28;19928;-82
2022/01/24 07:36:50;;;;;;;;;;;0.80;95.50;;;;;;5070854;28;19928;-81
2022/01/24 07:39:18;;;;;;;;;;;0.80;95.50;;;;;;5071693;28;19935;-80
2022/01/24 07:41:46;;;;;;;;;;;0.80;95.60;;;;;;5074331;28;19928;-78
2022/01/24 07:44:13;;;;;;;;;;;0.80;95.60;;;;;;5082468;28;19935;-81
2022/01/24 07:46:40;;;;;;;;;;;0.80;95.60;;;;;;5067832;28;19932;-80
2022/01/24 07:49:08;;;;;;;;;;;0.70;95.50;;;;;;5074771;28;20245;-79
2022/01/24 07:51:35;;;;;;;;;;;0.70;95.50;;;;;;5068636;28;20027;-79
2022/01/24 07:54:01;;;;;;;;;;;0.70;95.50;;;;;;5069775;28;19929;-79
2022/01/24 07:56:29;;;;;;;;;;;0.70;95.60;;;;;;5065094;28;19933;-79
2022/01/24 07:58:56;;;;;;;;;;;0.70;95.60;;;;;;5072797;28;19951;-79
2022/01/24 08:01:23;;;;;;;;;;;0.70;95.60;;;;;;5069480;28;20286;-80
2022/01/24 08:03:51;;;;;;;;;;;0.70;95.60;;;;;;5067119;28;19928;-79
2022/01/24 08:06:18;;;;;;;;;;;0.70;95.60;;;;;;5065164;28;20537;-78
2022/01/24 08:08:45;;;;;;;;;;;0.70;95.60;;;;;;5074138;28;19928;-80
2022/01/24 08:11:11;;;;;;;;;;;0.70;95.60;;;;;;5070760;28;19929;-80
2022/01/24 08:13:39;;;;;;;;;;;0.70;95.60;;;;;;5064593;28;20461;-79
2022/01/24 08:16:06;;;;;;;;;;;0.70;95.60;;;;;;5068604;28;19928;-82
2022/01/24 08:18:32;;;;;;;;;;;0.70;95.60;;;;;;5068940;28;19991;-79
2022/01/24 08:20:59;;;;;;;;;;;0.70;95.60;;;;;;5069908;28;19936;-78
2022/01/24 08:23:25;;;;;;;;;;;0.70;95.60;;;;;;5068420;28;19932;-79
2022/01/24 08:25:52;;;;;;;;;;;0.70;95.60;;;;;;5065869;28;19929;-79
2022/01/24 08:28:19;;;;;;;;;;;0.70;95.60;;;;;;5066220;28;20143;-79
2022/01/24 08:30:47;;;;;;;;;;;0.70;95.60;;;;;;5062047;28;20019;-79
2022/01/24 08:33:13;;;;;;;;;;;0.70;95.70;;;;;;5063913;28;20315;-78
2022/01/24 08:35:40;;;;;;;;;;;0.70;95.70;;;;;;5072282;28;19936;-79
2022/01/24 08:38:06;;;;;;;;;;;0.70;95.70;;;;;;5072418;28;19943;-81
2022/01/24 08:40:34;;;;;;;;;;;0.70;96.00;;;;;;5072184;28;19963;-78
2022/01/24 08:43:03;;;;;;;;;;;0.70;95.70;;;;;;5079801;28;19940;-80
2022/01/24 08:45:50;;;;;;;;;;;0.70;95.70;;;;;;5067667;28;20035;-78
2022/01/24 08:48:19;;;;;;;;;;;0.70;95.70;;;;;;5049527;28;19935;-81
2022/01/24 08:50:47;;;;;;;;;;;0.70;95.70;;;;;;5048348;28;20143;-79
2022/01/24 08:53:13;;;;;;;;;;;0.70;95.70;;;;;;5049996;28;19982;-78
2022/01/24 08:55:40;;;;;;;;;;;0.70;95.70;;;;;;5049916;28;19969;-79
2022/01/24 08:58:11;;;;;;;;;;;0.70;95.70;;;;;;5044906;28;19933;-79
2022/01/24 09:00:37;;;;;;;;;;;0.70;95.70;;;;;;5052656;28;19958;-79
2022/01/24 09:03:05;;;;;;;;;;;0.70;95.70;;;;;;5068949;28;19951;-80
2022/01/24 09:05:35;;;;;;;;;;;0.70;95.80;;;;;;5062336;28;20785;-80
2022/01/24 09:08:02;;;;;;;;;;;0.70;95.80;;;;;;5072211;28;19927;-79
2022/01/24 09:10:28;;;;;;;;;;;0.70;95.80;;;;;;5070814;28;19976;-80
2022/01/24 09:12:55;;;;;;;;;;;0.70;95.80;;;;;;5073617;28;19943;-79
2022/01/24 09:15:21;;;;;;;;;;;0.70;95.80;;;;;;5069987;28;20399;-80
2022/01/24 09:17:48;;;;;;;;;;;0.70;95.80;;;;;;5063557;28;19982;-79
2022/01/24 09:20:15;;;;;;;;;;;0.70;95.80;;;;;;5066535;28;19932;-79
2022/01/24 09:22:44;;;;;;;;;;;0.80;95.80;;;;;;5066764;28;19936;-78
2022/01/24 09:25:11;;;;;;;;;;;0.80;95.80;;;;;;5063754;28;20034;-78
2022/01/24 09:27:38;;;;;;;;;;;0.80;95.80;;;;;;5066286;28;20348;-79
2022/01/24 09:30:05;;;;;;;;;;;0.80;95.80;;;;;;5069625;28;19978;-79
2022/01/24 09:32:31;;;;;;;;;;;0.80;95.80;;;;;;5067596;28;19936;-79
2022/01/24 09:34:58;;;;;;;;;;;0.80;95.80;;;;;;5067023;28;19989;-79
2022/01/24 09:37:24;;;;;;;;;;;0.80;95.70;;;;;;5065217;28;19936;-81
2022/01/24 09:39:52;;;;;;;;;;;0.80;95.70;;;;;;5063518;28;19939;-78
2022/01/24 09:42:19;;;;;;;;;;;0.80;95.70;;;;;;5072184;28;20281;-79
2022/01/24 09:44:45;;;;;;;;;;;0.80;95.80;;;;;;5063639;28;19940;-80
2022/01/24 09:47:15;;;;;;;;;;;0.90;95.80;;;;;;5063278;28;19966;-79
2022/01/24 09:49:41;;;;;;;;;;;0.90;95.80;;;;;;5062799;28;19928;-79
2022/01/24 09:52:08;;;;;;;;;;;0.90;95.80;;;;;;5061703;28;20479;-80
2022/01/24 09:54:35;;;;;;;;;;;0.90;95.80;;;;;;5069424;28;19933;-80
2022/01/24 09:57:03;;;;;;;;;;;1.00;95.80;;;;;;5064626;28;19928;-79
2022/01/24 09:59:30;;;;;;;;;;;1.00;95.90;;;;;;5066296;28;19935;-79
2022/01/24 10:01:57;;;;;;;;;;;1.00;95.90;;;;;;5063979;28;19936;-79
2022/01/24 10:04:25;;;;;;;;;;;1.00;95.90;;;;;;5066216;28;20388;-80
2022/01/24 10:06:59;;;;;;;;;;;1.00;96.00;;;;;;5068891;28;19939;-79
2022/01/24 10:09:33;;;;;;;;;;;1.10;96.00;;;;;;5061059;28;20376;-80
2022/01/24 10:12:17;;;;;;;;;;;1.10;96.00;;;;;;5069700;28;19928;-78
2022/01/24 10:17:30;;;;;;;;;;;1.10;96.00;;;;;;5062604;28;19931;-78
2022/01/24 10:19:56;;;;;;;;;;;1.20;96.00;;;;;;5074329;28;20002;-80
2022/01/24 10:22:24;;;;;;;;;;;1.20;96.20;;;;;;5057007;28;19989;-79
2022/01/24 10:24:54;;;;;;;;;;;1.20;96.00;;;;;;5068248;28;20045;-79
2022/01/24 10:27:24;;;;;;;;;;;1.30;96.00;;;;;;5066121;28;19928;-77
2022/01/24 10:29:52;;;;;;;;;;;1.30;95.90;;;;;;5067340;28;20405;-78
2022/01/24 10:32:29;;;;;;;;;;;1.30;95.90;;;;;;5062818;28;19929;-79
2022/01/24 10:34:55;;;;;;;;;;;1.30;95.90;;;;;;5065196;28;19956;-79
2022/01/24 10:37:22;;;;;;;;;;;1.40;95.90;;;;;;5067062;28;19936;-79
2022/01/24 10:39:56;;;;;;;;;;;1.40;95.90;;;;;;5064976;28;19990;-80
2022/01/24 10:42:41;;;;;;;;;;;1.40;95.90;;;;;;5066230;28;19929;-79
2022/01/24 10:45:12;;;;;;;;;;;1.40;95.90;;;;;;5070610;28;20019;-79
2022/01/24 10:47:44;;;;;;;;;;;1.60;95.90;;;;;;5050044;28;19929;-78
2022/01/24 10:50:11;;;;;;;;;;;1.60;95.80;;;;;;5047809;28;19954;-79
2022/01/24 10:52:38;;;;;;;;;;;1.70;95.60;;;;;;5044651;28;19938;-79
2022/01/24 10:55:12;;;;;;;;;;;1.80;95.50;;;;;;5044193;28;20668;-78
2022/01/24 10:57:41;;;;;;;;;;;1.90;95.30;;;;;;5046238;28;19932;-78
2022/01/24 11:00:08;;;;;;;;;;;2.00;95.10;;;;;;5051265;28;19940;-79
2022/01/24 11:02:36;;;;;;;;;;;2.10;94.90;;;;;;5066280;28;20379;-81
2022/01/24 11:05:14;;;;;;;;;;;2.20;94.70;;;;;;5073345;28;21224;-78
2022/01/24 11:07:48;;;;;;;;;;;2.20;94.50;;;;;;5066426;28;19939;-78
2022/01/24 11:10:15;;;;;;;;;;;2.30;94.40;;;;;;5076620;28;20007;-78
2022/01/24 11:12:43;;;;;;;;;;;2.40;94.20;;;;;;5065675;28;19950;-78
2022/01/24 11:15:11;;;;;;;;;;;2.50;94.10;;;;;;5068762;28;19928;-79
2022/01/24 11:17:37;;;;;;;;;;;2.60;94.00;;;;;;5073349;28;19935;-79
2022/01/24 11:20:06;;;;;;;;;;;2.60;93.80;;;;;;5075781;28;19924;-79
2022/01/24 11:22:35;;;;;;;;;;;2.70;93.70;;;;;;5066863;28;19928;-78
2022/01/24 11:25:04;;;;;;;;;;;2.80;93.60;;;;;;5064404;28;20021;-79
2022/01/24 11:27:31;;;;;;;;;;;2.80;93.60;;;;;;5065557;28;20047;-78
2022/01/24 11:30:00;;;;;;;;;;;2.80;93.60;;;;;;5071651;28;19940;-78
2022/01/24 11:32:28;;;;;;;;;;;2.80;93.60;;;;;;5062211;28;19940;-78
2022/01/24 11:34:56;;;;;;;;;;;2.90;93.60;;;;;;5070451;28;19959;-80
2022/01/24 11:37:34;;;;;;;;;;;2.90;93.90;;;;;;5065056;28;19928;-78
2022/01/24 11:40:01;;;;;;;;;;;2.90;93.50;;;;;;5065204;28;20397;-78
2022/01/24 11:42:33;;;;;;;;;;;2.90;93.60;;;;;;5060036;28;19929;-78
2022/01/24 11:45:05;;;;;;;;;;;3.00;93.60;;;;;;5071071;28;20413;-78
2022/01/24 11:47:32;;;;;;;;;;;3.00;93.70;;;;;;5063719;28;19932;-77
2022/01/24 11:49:59;;;;;;;;;;;2.90;93.70;;;;;;5068932;28;19982;-77
2022/01/24 11:52:30;;;;;;;;;;;3.00;93.80;;;;;;5061039;28;19929;-78
2022/01/24 11:55:06;;;;;;;;;;;3.00;93.70;;;;;;5064304;28;19932;-79
2022/01/24 11:57:37;;;;;;;;;;;3.10;93.70;;;;;;5061846;28;20408;-80
2022/01/24 12:00:18;;;;;;;;;;;3.10;93.70;;;;;;5069360;28;19973;-80
2022/01/24 12:02:46;;;;;;;;;;;3.20;93.70;;;;;;5065624;28;19927;-80
2022/01/24 12:05:14;;;;;;;;;;;3.20;93.60;;;;;;5073123;28;20432;-80
2022/01/24 12:07:42;;;;;;;;;;;3.30;93.60;;;;;;5067462;28;19939;-79
2022/01/24 12:10:33;;;;;;;;;;;3.40;93.50;;;;;;5067455;28;19928;-80
2022/01/24 12:13:01;;;;;;;;;;;3.40;93.40;;;;;;5058615;28;19944;-78
2022/01/24 12:15:49;;;;;;;;;;;3.50;93.30;;;;;;5055363;28;20012;-79
2022/01/24 12:18:21;;;;;;;;;;;3.60;93.20;;;;;;5073330;28;19932;-79
2022/01/24 12:20:48;;;;;;;;;;;3.60;93.10;;;;;;5066772;28;19928;-79
2022/01/24 12:23:32;;;;;;;;;;;3.70;93.00;;;;;;5065013;28;19929;-81
2022/01/24 12:26:02;;;;;;;;;;;3.80;92.90;;;;;;5062973;28;19928;-79
2022/01/24 12:28:29;;;;;;;;;;;3.80;92.80;;;;;;5068510;28;19935;-80
2022/01/24 12:30:59;;;;;;;;;;;3.90;92.70;;;;;;5071067;28;19928;-78
2022/01/24 12:33:31;;;;;;;;;;;3.90;92.60;;;;;;5063068;28;19999;-79
2022/01/24 12:35:58;;;;;;;;;;;4.00;92.60;;;;;;5065318;28;19936;-80
2022/01/24 12:38:24;;;;;;;;;;;4.00;92.60;;;;;;5063339;28;19939;-79
2022/01/24 12:41:14;;;;;;;;;;;4.10;92.50;;;;;;5065503;28;19969;-79
2022/01/24 12:43:53;;;;;;;;;;;4.20;92.40;;;;;;5074206;28;19935;-78
2022/01/24 12:46:20;;;;;;;;;;;4.30;92.30;;;;;;5063728;28;19983;-79
2022/01/24 12:48:49;;;;;;;;;;;4.30;92.30;;;;;;5066335;28;19930;-79
2022/01/24 12:51:16;;;;;;;;;;;4.40;92.20;;;;;;5061351;28;20014;-79
2022/01/24 12:53:43;;;;;;;;;;;4.40;92.10;;;;;;5063334;28;19955;-80
2022/01/24 12:56:11;;;;;;;;;;;4.50;92.10;;;;;;5061421;28;19936;-79
2022/01/24 12:58:41;;;;;;;;;;;4.50;92.10;;;;;;5067239;28;19934;-79
2022/01/24 13:01:18;;;;;;;;;;;4.50;91.90;;;;;;5062336;28;19929;-79
2022/01/24 13:03:50;;;;;;;;;;;4.60;91.90;;;;;;5061366;28;20358;-80
2022/01/24 13:06:18;;;;;;;;;;;4.60;91.80;;;;;;5064353;28;19929;-80
2022/01/24 13:08:54;;;;;;;;;;;4.60;91.80;;;;;;5068233;28;19929;-79
2022/01/24 13:11:21;;;;;;;;;;;4.70;91.90;;;;;;5063687;28;20370;-79
2022/01/24 13:14:01;;;;;;;;;;;4.70;91.90;;;;;;5060199;28;19943;-80
2022/01/24 13:22:16;;;;;;;;;;;4.80;91.90;;;;;;5065846;28;19935;-79
2022/01/24 13:24:57;;;;;;;;;;;4.90;91.90;;;;;;5064781;28;19951;-80
2022/01/24 13:27:33;;;;;;;;;;;4.90;91.90;;;;;;5065259;28;19940;-80
2022/01/24 13:30:01;;;;;;;;;;;4.90;92.10;;;;;;5070724;28;19932;-75
2022/01/24 13:32:46;;;;;;;;;;;4.90;91.70;;;;;;5061307;28;19936;-77
2022/01/24 13:35:15;;;;;;;;;;;5.00;91.80;;;;;;5072781;28;20816;-78
2022/01/24 13:37:42;;;;;;;;;;;5.00;91.80;;;;;;5064453;28;19928;-78
2022/01/24 13:40:09;;;;;;;;;;;5.00;91.90;;;;;;5066970;28;20400;-77
2022/01/24 13:42:35;;;;;;;;;;;5.00;91.70;;;;;;5065865;28;19965;-77
2022/01/24 13:45:02;;;;;;;;;;;5.00;91.60;;;;;;5071232;28;19932;-77
2022/01/24 13:47:29;;;;;;;;;;;5.10;91.60;;;;;;5064549;28;19933;-77
2022/01/24 13:49:55;;;;;;;;;;;5.10;91.60;;;;;;5075096;28;19936;-79
2022/01/24 13:52:26;;;;;;;;;;;5.20;91.70;;;;;;5064353;28;19962;-77
2022/01/24 13:54:53;;;;;;;;;;;5.20;91.60;;;;;;5067432;28;19928;-78
2022/01/24 13:57:20;;;;;;;;;;;5.30;91.50;;;;;;5058577;28;19928;-78
2022/01/24 13:59:46;;;;;;;;;;;5.40;91.10;;;;;;5081319;28;19935;-81
2022/01/24 14:02:15;;;;;;;;;;;5.60;91.10;;;;;;5068160;28;20692;-81
2022/01/24 14:04:42;;;;;;;;;;;5.80;91.00;;;;;;5072261;28;19935;-80
2022/01/24 14:07:11;;;;;;;;;;;6.00;90.80;;;;;;5073528;28;19954;-80
2022/01/24 14:09:40;;;;;;;;;;;6.20;90.60;;;;;;5079774;28;19928;-79
2022/01/24 14:12:08;;;;;;;;;;;6.40;90.30;;;;;;5071096;28;20463;-78
2022/01/24 14:14:43;;;;;;;;;;;6.50;90.10;;;;;;5070134;28;20510;-79
2022/01/24 14:17:23;;;;;;;;;;;6.60;89.70;;;;;;5064914;28;19947;-79
2022/01/24 14:20:01;;;;;;;;;;;6.80;89.30;;;;;;5066107;28;19928;-80
2022/01/24 14:22:37;;;;;;;;;;;6.80;88.70;;;;;;5066254;28;19974;-79
2022/01/24 14:25:05;;;;;;;;;;;6.90;88.30;;;;;;5070935;28;19928;-78
2022/01/24 14:27:36;;;;;;;;;;;7.00;88.00;;;;;;5074923;28;19936;-79
2022/01/24 14:30:08;;;;;;;;;;;7.10;87.70;;;;;;5077333;28;19958;-78
2022/01/24 14:32:38;;;;;;;;;;;7.20;87.30;;;;;;5076882;28;19976;-80
2022/01/24 14:35:06;;;;;;;;;;;7.20;87.00;;;;;;5065262;28;19933;-80
2022/01/24 14:37:45;;;;;;;;;;;7.20;86.90;;;;;;5074395;28;19928;-80
2022/01/24 14:40:31;;;;;;;;;;;7.20;86.80;;;;;;5057726;28;19937;-80
2022/01/24 14:44:53;;;;;;;;;;;7.20;86.80;;;;;;5064277;28;19939;-78
2022/01/24 14:45:43;;;;;;;;;;;7.20;86.80;;;;;;5064101;28;20465;-79
2022/01/24 14:48:10;;;;;;;;;;;7.20;87.10;;;;;;5067293;28;19924;-80
2022/01/24 14:50:37;;;;;;;;;;;7.10;87.40;;;;;;5066014;28;19928;-79
2022/01/24 14:53:06;;;;;;;;;;;7.00;87.70;;;;;;5063150;28;20019;-79
2022/01/24 14:55:34;;;;;;;;;;;7.00;88.00;;;;;;5064462;28;19968;-80
2022/01/24 14:58:01;;;;;;;;;;;7.00;88.30;;;;;;5062225;28;19936;-80
2022/01/24 15:00:28;;;;;;;;;;;6.90;88.50;;;;;;5061957;28;19932;-79
2022/01/24 15:02:55;;;;;;;;;;;6.90;88.90;;;;;;5064468;28;19939;-79
2022/01/24 15:05:22;;;;;;;;;;;6.80;89.00;;;;;;5063002;28;19933;-79
2022/01/24 15:07:49;;;;;;;;;;;6.80;89.10;;;;;;5066753;28;20329;-81
2022/01/24 15:10:16;;;;;;;;;;;6.70;89.40;;;;;;5062509;28;20538;-79
2022/01/24 15:12:48;;;;;;;;;;;6.70;89.70;;;;;;5063592;28;20011;-80
2022/01/24 15:15:18;;;;;;;;;;;6.70;89.90;;;;;;5060280;28;19935;-79
2022/01/24 15:23:56;;;;;;;;;;;6.60;90.00;;;;;;5062138;28;20024;-80
2022/01/24 15:26:01;;;;;;;;;;;6.60;90.20;;;;;;5062868;28;20440;-80
2022/01/24 15:28:29;;;;;;;;;;;6.50;90.30;;;;;;5069956;28;19928;-79
2022/01/24 15:30:55;;;;;;;;;;;6.50;90.40;;;;;;5066041;28;20435;-79
2022/01/24 15:33:22;;;;;;;;;;;6.50;90.50;;;;;;5062225;28;19959;-80
2022/01/24 15:35:50;;;;;;;;;;;6.50;90.50;;;;;;5069483;28;19928;-80
2022/01/24 15:38:16;;;;;;;;;;;6.50;90.60;;;;;;5064736;28;19993;-80
2022/01/24 15:40:43;;;;;;;;;;;6.40;90.60;;;;;;5063941;28;19929;-80
2022/01/24 15:43:25;;;;;;;;;;;6.40;90.80;;;;;;5061207;28;20031;-79
2022/01/24 15:46:01;;;;;;;;;;;6.40;90.80;;;;;;5053571;28;19928;-79
2022/01/24 15:48:28;;;;;;;;;;;6.40;90.80;;;;;;5059030;28;19958;-79
2022/01/24 15:50:54;;;;;;;;;;;6.30;90.80;;;;;;5064254;28;19932;-80
2022/01/24 15:53:21;;;;;;;;;;;6.30;90.90;;;;;;5066277;28;19982;-78
2022/01/24 15:56:12;;;;;;;;;;;6.30;91.00;;;;;;5064146;28;19967;-80
2022/01/24 15:58:37;;;;;;;;;;;6.30;91.00;;;;;;5063054;28;20363;-79